Time,TemperatureF,DewpointF,PressureIn,WindDirection,WindDirectionDegrees,WindSpeedMPH,WindSpeedGustMPH,Humidity,HourlyPrecipIn,Conditions,Clouds,dailyrainin,SolarRadiationWatts/m^2,SoftwareType,DateUTC
2013-02-05 00:03:00,38.0,32.0,-100.00,WNW,303,2.0,4.0,79,0.00,,,0.00,0.000000,,2013-02-05 05:03:00,
2013-02-05 00:32:00,37.0,31.0,-100.00,West,274,3.0,4.0,79,0.00,,,0.00,0.000000,,2013-02-05 05:32:00,
2013-02-05 00:42:00,37.0,31.0,-100.00,West,274,3.0,4.0,79,0.00,,,0.00,0.000000,,2013-02-05 05:42:00,
2013-02-05 00:52:00,37.0,31.0,-100.00,West,274,3.0,4.0,79,0.00,,,0.00,0.000000,,2013-02-05 05:52:00,
2013-02-05 01:02:00,37.0,31.0,-100.00,West,274,3.0,4.0,79,0.00,,,0.00,0.000000,,2013-02-05 06:02:00,
2013-02-05 01:32:00,41.0,33.0,-100.00,WSW,246,3.0,4.0,73,0.00,,,0.00,0.000000,,2013-02-05 06:32:00,
2013-02-05 01:42:00,41.0,33.0,-100.00,WSW,246,3.0,4.0,73,0.00,,,0.00,0.000000,,2013-02-05 06:42:00,
2013-02-05 01:52:00,41.0,33.0,-100.00,WSW,246,3.0,4.0,73,0.00,,,0.00,0.000000,,2013-02-05 06:52:00,
2013-02-05 02:01:00,41.0,33.0,-100.00,WSW,246,3.0,4.0,73,0.00,,,0.00,0.000000,,2013-02-05 07:01:00,
2013-02-05 02:32:00,41.0,34.0,-100.00,SSW,205,0.0,3.0,77,0.00,,,0.00,0.000000,,2013-02-05 07:32:00,
2013-02-05 02:42:00,41.0,34.0,-100.00,SSW,205,0.0,3.0,77,0.00,,,0.00,0.000000,,2013-02-05 07:42:00,
2013-02-05 02:52:00,41.0,34.0,-100.00,SSW,205,0.0,3.0,77,0.00,,,0.00,0.000000,,2013-02-05 07:52:00,
2013-02-05 03:01:00,41.0,34.0,-100.00,SSW,205,0.0,3.0,77,0.00,,,0.00,0.000000,,2013-02-05 08:01:00,
2013-02-05 03:32:00,39.0,34.0,-100.00,South,183,0.0,2.0,83,0.00,,,0.00,0.000000,,2013-02-05 08:32:00,
2013-02-05 03:42:00,39.0,34.0,-100.00,South,183,0.0,2.0,83,0.00,,,0.00,0.000000,,2013-02-05 08:42:00,
2013-02-05 03:52:00,39.0,34.0,-100.00,South,183,0.0,2.0,83,0.00,,,0.00,0.000000,,2013-02-05 08:52:00,
2013-02-05 04:02:00,39.0,34.0,-100.00,South,183,0.0,2.0,83,0.00,,,0.00,0.000000,,2013-02-05 09:02:00,
2013-02-05 04:32:00,37.0,33.0,-100.00,South,171,0.0,1.0,86,0.00,,,0.00,0.000000,,2013-02-05 09:32:00,
2013-02-05 04:42:00,37.0,33.0,-100.00,South,171,0.0,1.0,86,0.00,,,0.00,0.000000,,2013-02-05 09:42:00,
2013-02-05 04:52:00,37.0,33.0,-100.00,South,171,0.0,1.0,86,0.00,,,0.00,0.000000,,2013-02-05 09:52:00,
2013-02-05 05:02:00,37.0,33.0,-100.00,South,171,0.0,1.0,86,0.00,,,0.00,0.000000,,2013-02-05 10:02:00,
2013-02-05 05:32:00,38.0,34.0,-100.00,ENE,68,0.0,2.0,86,0.00,,,0.00,0.000000,,2013-02-05 10:32:00,
2013-02-05 05:42:00,38.0,34.0,-100.00,ENE,68,0.0,2.0,86,0.00,,,0.00,0.000000,,2013-02-05 10:42:00,
2013-02-05 05:52:00,38.0,34.0,-100.00,ENE,68,0.0,2.0,86,0.00,,,0.00,0.000000,,2013-02-05 10:52:00,
2013-02-05 06:01:00,38.0,34.0,-100.00,ENE,68,0.0,2.0,86,0.00,,,0.00,0.000000,,2013-02-05 11:01:00,
2013-02-05 06:32:00,38.0,34.0,-100.00,SSE,167,0.0,0.0,87,0.00,,,0.00,0.000000,,2013-02-05 11:32:00,
2013-02-05 06:42:00,38.0,34.0,-100.00,SSE,167,0.0,0.0,87,0.00,,,0.00,0.000000,,2013-02-05 11:42:00,
2013-02-05 06:52:00,38.0,34.0,-100.00,SSE,167,0.0,0.0,87,0.00,,,0.00,0.000000,,2013-02-05 11:52:00,
2013-02-05 07:02:00,38.0,34.0,-100.00,SSE,167,0.0,0.0,87,0.00,,,0.00,0.000000,,2013-02-05 12:02:00,
2013-02-05 07:32:00,40.0,35.0,-100.00,West,262,2.0,3.0,82,0.00,,,0.00,0.000000,,2013-02-05 12:32:00,
2013-02-05 07:42:00,40.0,35.0,-100.00,West,262,2.0,3.0,82,0.00,,,0.00,0.000000,,2013-02-05 12:42:00,
2013-02-05 07:52:00,40.0,35.0,-100.00,West,262,2.0,3.0,82,0.00,,,0.00,0.000000,,2013-02-05 12:52:00,
2013-02-05 08:02:00,40.0,35.0,-100.00,West,262,2.0,3.0,82,0.00,,,0.00,0.000000,,2013-02-05 13:02:00,
2013-02-05 08:32:00,42.0,36.0,-100.00,SW,228,3.0,4.0,80,0.00,,,0.00,28.000000,,2013-02-05 13:32:00,
2013-02-05 08:42:00,42.0,36.0,-100.00,SW,228,3.0,4.0,80,0.00,,,0.00,28.000000,,2013-02-05 13:42:00,
2013-02-05 08:52:00,42.0,36.0,-100.00,SW,228,3.0,4.0,80,0.00,,,0.00,28.000000,,2013-02-05 13:52:00,
2013-02-05 09:01:00,42.0,36.0,-100.00,SW,228,3.0,4.0,80,0.00,,,0.00,28.000000,,2013-02-05 14:01:00,
2013-02-05 09:32:00,51.0,36.0,-100.00,West,264,9.0,15.0,57,0.00,,,0.00,292.000000,,2013-02-05 14:32:00,
2013-02-05 09:42:00,51.0,36.0,-100.00,West,264,9.0,15.0,57,0.00,,,0.00,292.000000,,2013-02-05 14:42:00,
2013-02-05 09:52:00,51.0,36.0,-100.00,West,264,9.0,15.0,57,0.00,,,0.00,292.000000,,2013-02-05 14:52:00,
2013-02-05 10:02:00,51.0,36.0,-100.00,West,264,9.0,15.0,57,0.00,,,0.00,292.000000,,2013-02-05 15:02:00,
2013-02-05 10:32:00,55.0,33.0,-100.00,WSW,253,8.0,15.0,44,0.00,,,0.00,491.000000,,2013-02-05 15:32:00,
2013-02-05 10:42:00,55.0,33.0,-100.00,WSW,253,8.0,15.0,44,0.00,,,0.00,491.000000,,2013-02-05 15:42:00,
2013-02-05 10:52:00,55.0,33.0,-100.00,WSW,253,8.0,15.0,44,0.00,,,0.00,491.000000,,2013-02-05 15:52:00,
2013-02-05 11:01:00,55.0,33.0,-100.00,WSW,253,8.0,15.0,44,0.00,,,0.00,491.000000,,2013-02-05 16:01:00,
2013-02-05 11:33:00,57.0,38.0,-100.00,SSW,208,5.0,15.0,48,0.00,,,-99.99,647.000000,,2013-02-05 16:33:00,
2013-02-05 11:42:00,57.0,38.0,-100.00,SSW,208,5.0,15.0,48,0.00,,,-99.99,647.000000,,2013-02-05 16:42:00,
2013-02-05 11:52:00,57.0,38.0,-100.00,SSW,208,5.0,15.0,48,0.00,,,-99.99,647.000000,,2013-02-05 16:52:00,
2013-02-05 12:01:00,57.0,38.0,-100.00,SSW,208,5.0,15.0,48,0.00,,,-99.99,647.000000,,2013-02-05 17:01:00,
2013-02-05 12:33:00,57.0,40.0,-100.00,SSW,210,9.0,16.0,52,0.00,,,-99.99,750.000000,,2013-02-05 17:33:00,
2013-02-05 12:42:00,57.0,40.0,-100.00,SSW,210,9.0,16.0,52,0.00,,,-99.99,750.000000,,2013-02-05 17:42:00,
2013-02-05 12:52:00,57.0,40.0,-100.00,SSW,210,9.0,16.0,52,0.00,,,-99.99,750.000000,,2013-02-05 17:52:00,
2013-02-05 13:02:00,57.0,40.0,-100.00,SSW,210,9.0,16.0,52,0.00,,,-99.99,750.000000,,2013-02-05 18:02:00,
2013-02-05 13:32:00,57.0,38.0,-100.00,SSW,213,10.0,18.0,48,0.00,,,0.00,767.000000,,2013-02-05 18:32:00,
2013-02-05 13:42:00,57.0,38.0,-100.00,SSW,213,10.0,18.0,48,0.00,,,0.00,767.000000,,2013-02-05 18:42:00,
2013-02-05 13:52:00,57.0,38.0,-100.00,SSW,213,10.0,18.0,48,0.00,,,0.00,767.000000,,2013-02-05 18:52:00,
2013-02-05 14:02:00,57.0,38.0,-100.00,SSW,213,10.0,18.0,48,0.00,,,0.00,767.000000,,2013-02-05 19:02:00,
2013-02-05 14:32:00,59.0,39.0,-100.00,SW,222,10.0,17.0,47,0.00,,,-99.99,709.000000,,2013-02-05 19:32:00,
2013-02-05 14:42:00,59.0,39.0,-100.00,SW,222,10.0,17.0,47,0.00,,,-99.99,709.000000,,2013-02-05 19:42:00,
2013-02-05 14:52:00,59.0,39.0,-100.00,SW,222,10.0,17.0,47,0.00,,,-99.99,709.000000,,2013-02-05 19:52:00,
2013-02-05 15:02:00,59.0,39.0,-100.00,SW,222,10.0,17.0,47,0.00,,,-99.99,709.000000,,2013-02-05 20:02:00,
2013-02-05 15:32:00,59.0,42.0,-100.00,SW,218,10.0,17.0,53,0.00,,,-99.99,579.000000,,2013-02-05 20:32:00,
2013-02-05 15:42:00,59.0,42.0,-100.00,SW,218,10.0,17.0,53,0.00,,,-99.99,579.000000,,2013-02-05 20:42:00,
2013-02-05 15:52:00,59.0,42.0,-100.00,SW,218,10.0,17.0,53,0.00,,,-99.99,579.000000,,2013-02-05 20:52:00,
2013-02-05 16:02:00,59.0,42.0,-100.00,SW,218,10.0,17.0,53,0.00,,,-99.99,579.000000,,2013-02-05 21:02:00,
2013-02-05 16:32:00,59.0,44.0,-100.00,SW,221,10.0,20.0,57,0.00,,,0.00,334.000000,,2013-02-05 21:32:00,
2013-02-05 16:42:00,59.0,44.0,-100.00,SW,221,10.0,20.0,57,0.00,,,0.00,334.000000,,2013-02-05 21:42:00,
2013-02-05 16:52:00,59.0,44.0,-100.00,SW,221,10.0,20.0,57,0.00,,,0.00,334.000000,,2013-02-05 21:52:00,
2013-02-05 17:02:00,59.0,44.0,-100.00,SW,221,10.0,20.0,57,0.00,,,0.00,334.000000,,2013-02-05 22:02:00,
2013-02-05 17:32:00,56.0,44.0,-100.00,SW,229,9.0,17.0,64,0.00,,,0.00,195.000000,,2013-02-05 22:32:00,
2013-02-05 17:42:00,56.0,44.0,-100.00,SW,229,9.0,17.0,64,0.00,,,0.00,195.000000,,2013-02-05 22:42:00,
2013-02-05 17:52:00,56.0,44.0,-100.00,SW,229,9.0,17.0,64,0.00,,,0.00,195.000000,,2013-02-05 22:52:00,
2013-02-05 18:02:00,56.0,44.0,-100.00,SW,229,9.0,17.0,64,0.00,,,0.00,195.000000,,2013-02-05 23:02:00,
2013-02-05 18:33:00,54.0,43.0,-100.00,SW,233,7.0,17.0,67,0.00,,,0.00,25.000000,,2013-02-05 23:33:00,
2013-02-05 18:42:00,54.0,43.0,-100.00,SW,233,7.0,17.0,67,0.00,,,0.00,25.000000,,2013-02-05 23:42:00,
2013-02-05 18:53:00,54.0,43.0,-100.00,SW,233,7.0,17.0,67,0.00,,,0.00,25.000000,,2013-02-05 23:53:00,
2013-02-05 19:02:00,54.0,43.0,-100.00,SW,233,7.0,17.0,67,0.00,,,0.00,25.000000,,2013-02-06 00:02:00,
2013-02-05 19:32:00,54.0,44.0,-100.00,WSW,240,8.0,15.0,68,0.00,,,0.00,0.000000,,2013-02-06 00:32:00,
2013-02-05 19:42:00,54.0,44.0,-100.00,WSW,240,8.0,15.0,68,0.00,,,0.00,0.000000,,2013-02-06 00:42:00,
2013-02-05 19:52:00,54.0,44.0,-100.00,WSW,240,8.0,15.0,68,0.00,,,0.00,0.000000,,2013-02-06 00:52:00,
2013-02-05 20:02:00,54.0,44.0,-100.00,WSW,240,8.0,15.0,68,0.00,,,0.00,0.000000,,2013-02-06 01:02:00,
2013-02-05 20:33:00,54.0,46.0,-100.00,WSW,237,6.0,14.0,73,0.00,,,0.00,0.000000,,2013-02-06 01:33:00,
2013-02-05 20:42:00,54.0,46.0,-100.00,WSW,237,6.0,14.0,73,0.00,,,0.00,0.000000,,2013-02-06 01:42:00,
2013-02-05 20:53:00,54.0,46.0,-100.00,WSW,237,6.0,14.0,73,0.00,,,0.00,0.000000,,2013-02-06 01:53:00,
2013-02-05 21:02:00,54.0,46.0,-100.00,WSW,237,6.0,14.0,73,0.00,,,0.00,0.000000,,2013-02-06 02:02:00,
2013-02-05 21:32:00,52.0,45.0,-100.00,SW,225,5.0,8.0,77,0.00,,,0.00,0.000000,,2013-02-06 02:32:00,
2013-02-05 21:42:00,52.0,45.0,-100.00,SW,225,5.0,8.0,77,0.00,,,0.00,0.000000,,2013-02-06 02:42:00,
2013-02-05 21:53:00,52.0,45.0,-100.00,SW,225,5.0,8.0,77,0.00,,,0.00,0.000000,,2013-02-06 02:53:00,
2013-02-05 22:03:00,52.0,45.0,-100.00,SW,225,5.0,8.0,77,0.00,,,0.00,0.000000,,2013-02-06 03:03:00,
2013-02-05 22:33:00,50.0,45.0,-100.00,SW,214,4.0,7.0,83,0.00,,,0.00,0.000000,,2013-02-06 03:33:00,
2013-02-05 22:42:00,50.0,45.0,-100.00,SW,214,4.0,7.0,83,0.00,,,0.00,0.000000,,2013-02-06 03:42:00,
2013-02-05 22:53:00,50.0,45.0,-100.00,SW,214,4.0,7.0,83,0.00,,,0.00,0.000000,,2013-02-06 03:53:00,
2013-02-05 23:02:00,50.0,45.0,-100.00,SW,214,4.0,7.0,83,0.00,,,0.00,0.000000,,2013-02-06 04:02:00,
2013-02-05 23:32:00,49.0,45.0,-100.00,SW,223,4.0,6.0,86,0.00,,,0.00,0.000000,,2013-02-06 04:32:00,
2013-02-05 23:42:00,49.0,45.0,-100.00,SW,223,4.0,6.0,86,0.00,,,0.00,0.000000,,2013-02-06 04:42:00,
2013-02-05 23:52:00,49.0,45.0,-100.00,SW,223,4.0,6.0,86,0.00,,,0.00,0.000000,,2013-02-06 04:52:00,